Puerto de Leitariegos

latitud = 42° 59' 50''N | longitud = 006° 25' 07''W
1530 metros sobre el nivel del mar | datos mensuales

Fecha, hora, temperatura, viento dirección y velocidad, humedad y presión.

  • 21-06-2018 22:00:00 | 13.00°C | Noroeste |6.00 km/h | 96.00% | 854.60 hPa
  • 21-06-2018 21:00:00 | 0.00°C | 0 |0.00 km/h | 0.00% | 0.00 hPa
  • 21-06-2018 20:00:00 | 13.80°C | Noroeste |13.00 km/h | 95.00% | 854.40 hPa
  • 21-06-2018 19:00:00 | 14.80°C | 0 |0.00 km/h | 91.00% | 854.20 hPa
  • 21-06-2018 18:00:00 | 14.60°C | 0 |0.00 km/h | 95.00% | 854.60 hPa
  • 21-06-2018 17:00:00 | 15.00°C | Noroeste |17.00 km/h | 95.00% | 854.50 hPa
  • 21-06-2018 16:00:00 | 0.00°C | 0 |0.00 km/h | 0.00% | 0.00 hPa
  • 21-06-2018 15:00:00 | 0.00°C | 0 |0.00 km/h | 0.00% | 0.00 hPa
  • 21-06-2018 14:00:00 | 0.00°C | 0 |0.00 km/h | 0.00% | 0.00 hPa
  • 21-06-2018 13:00:00 | 16.70°C | Norte |13.00 km/h | 89.00% | 854.60 hPa
  • 21-06-2018 12:00:00 | 16.40°C | Noroeste |12.00 km/h | 87.00% | 854.40 hPa
  • 21-06-2018 11:00:00 | 0.00°C | 0 |0.00 km/h | 0.00% | 0.00 hPa
  • 21-06-2018 10:00:00 | 17.90°C | Este |5.00 km/h | 76.00% | 854.00 hPa
  • 21-06-2018 09:00:00 | 12.60°C | Norte |14.00 km/h | 95.00% | 853.50 hPa
  • 21-06-2018 08:00:00 | 0.00°C | 0 |0.00 km/h | 0.00% | 0.00 hPa
  • 21-06-2018 07:00:00 | 12.00°C | Noroeste |4.00 km/h | 76.00% | 853.40 hPa
  • 21-06-2018 06:00:00 | 0.00°C | 0 |0.00 km/h | 0.00% | 0.00 hPa
  • 21-06-2018 05:00:00 | 15.90°C | Sudeste |19.00 km/h | 53.00% | 853.80 hPa
  • 21-06-2018 04:00:00 | 15.10°C | Sur |8.00 km/h | 60.00% | 854.30 hPa
  • 21-06-2018 03:00:00 | 0.00°C | 0 |0.00 km/h | 0.00% | 0.00 hPa
  • 21-06-2018 02:00:00 | 14.20°C | Sudeste |3.00 km/h | 62.00% | 854.90 hPa
  • 21-06-2018 01:00:00 | 13.10°C | Noroeste |4.00 km/h | 65.00% | 854.60 hPa
  • 21-06-2018 00:00:00 | 13.50°C | Noroeste |11.00 km/h | 81.00% | 855.00 hPa
  • 20-06-2018 23:00:00 | 13.90°C | Noroeste |6.00 km/h | 69.00% | 854.30 hPa